Time;durP1;ratioP1;P1;durP2;ratioP2;P2;SDS_P1;SDS_P2;PMS_P1;PMS_P2;Temp;Humidity;BMP_temperature;BMP_pressure;BME280_temperature;BME280_humidity;BME280_pressure;Samples;Min_cycle;Max_cycle;Signal;HPM_P1;HPM_P2
2021/06/29 00:01:58;;;;;;;22.67;14.07;;;;;;;23.05;100.00;100269.94;3555758;40;20026;-71
2021/06/29 00:06:53;;;;;;;16.73;14.40;;;;;;;22.86;100.00;100265.25;3611050;39;20052;-73
2021/06/29 00:09:23;;;;;;;19.25;14.98;;;;;;;22.97;100.00;100265.31;3612233;39;20028;-70
2021/06/29 00:11:50;;;;;;;17.60;13.40;;;;;;;23.20;100.00;100261.81;3612545;39;20036;-73
2021/06/29 00:14:36;;;;;;;19.88;13.75;;;;;;;22.88;100.00;100268.56;3603325;39;20043;-74
2021/06/29 00:17:02;;;;;;;19.77;13.93;;;;;;;22.85;100.00;100268.81;3612360;39;20031;-71
2021/06/29 00:22:01;;;;;;;18.00;13.25;;;;;;;22.95;100.00;100269.78;3572692;39;20049;-76
2021/06/29 00:26:56;;;;;;;15.38;13.15;;;;;;;22.96;100.00;100268.00;3616126;39;20035;-73
2021/06/29 00:29:23;;;;;;;16.70;12.80;;;;;;;23.46;100.00;100264.22;3622563;39;20028;-71
2021/06/29 00:37:08;;;;;;;15.38;12.98;;;;;;;22.89;100.00;100264.22;3567010;40;20029;-72
2021/06/29 00:39:34;;;;;;;16.83;13.85;;;;;;;22.62;100.00;100266.25;3561964;39;20527;-74
2021/06/29 00:41:59;;;;;;;17.25;13.75;;;;;;;22.61;100.00;100267.19;3558623;40;20120;-74
2021/06/29 00:47:15;;;;;;;16.70;14.18;;;;;;;22.81;100.00;100253.59;3571762;39;20628;-73
2021/06/29 00:49:41;;;;;;;18.98;14.38;;;;;;;22.63;100.00;100249.75;3570580;40;20046;-71
2021/06/29 00:52:13;;;;;;;25.40;14.52;;;;;;;22.35;100.00;100254.31;3571661;39;20687;-72
2021/06/29 00:54:41;;;;;;;18.88;14.70;;;;;;;22.65;100.00;100253.91;3569782;40;20093;-75
2021/06/29 00:59:40;;;;;;;16.45;14.38;;;;;;;22.75;100.00;100259.22;3575935;39;20050;-72
2021/06/29 01:02:10;;;;;;;19.75;14.77;;;;;;;22.66;100.00;100258.13;3560834;39;20034;-71
2021/06/29 01:04:41;;;;;;;19.15;14.23;;;;;;;22.42;100.00;100255.53;3569669;40;20026;-74
2021/06/29 01:07:12;;;;;;;20.00;14.20;;;;;;;23.13;100.00;100252.84;3569820;40;20045;-74
2021/06/29 01:09:41;;;;;;;17.95;14.23;;;;;;;22.92;100.00;100256.19;3569204;39;20026;-72
2021/06/29 01:12:09;;;;;;;20.13;15.30;;;;;;;22.76;100.00;100253.91;3560263;40;20026;-72
2021/06/29 01:14:35;;;;;;;20.17;15.13;;;;;;;22.71;100.00;100256.03;3560218;40;20058;-73
2021/06/29 01:17:04;;;;;;;19.15;15.07;;;;;;;23.01;100.00;100246.00;3569535;40;20041;-71
2021/06/29 01:19:46;;;;;;;16.75;14.38;;;;;;;23.17;100.00;100245.66;3569568;40;20395;-72
2021/06/29 01:22:14;;;;;;;20.20;14.02;;;;;;;22.93;100.00;100239.72;3571295;40;20464;-71
2021/06/29 01:24:43;;;;;;;15.85;13.70;;;;;;;22.73;100.00;100243.78;3562900;40;20054;-72
2021/06/29 01:32:32;;;;;;;18.08;14.90;;;;;;;22.69;100.00;100244.94;3572834;40;20033;-71
2021/06/29 01:37:27;;;;;;;21.75;15.45;;;;;;;22.61;100.00;100249.88;3569658;39;20034;-74
2021/06/29 01:39:59;;;;;;;20.45;16.42;;;;;;;22.13;100.00;100254.19;3561692;39;20034;-71
2021/06/29 01:42:29;;;;;;;19.40;14.68;;;;;;;22.18;100.00;100252.13;3570654;40;20754;-71
2021/06/29 01:44:57;;;;;;;21.13;15.40;;;;;;;23.04;100.00;100253.53;3561302;40;20038;-71
2021/06/29 01:47:28;;;;;;;17.67;15.30;;;;;;;22.09;100.00;100257.94;3561080;40;20029;-76
2021/06/29 01:49:55;;;;;;;;;;;;;;;21.69;100.00;100258.22;3561402;40;20037;-71
2021/06/29 01:52:22;;;;;;;21.58;16.52;;;;;;;22.14;100.00;100260.22;3561403;40;19979;-72
2021/06/29 01:54:48;;;;;;;24.55;15.75;;;;;;;22.33;100.00;100253.59;3560126;40;20043;-71
2021/06/29 01:57:18;;;;;;;20.92;15.95;;;;;;;21.83;100.00;100260.72;3570938;39;20041;-75
2021/06/29 01:59:49;;;;;;;19.10;15.27;;;;;;;22.25;100.00;100258.50;3570831;40;20092;-72
2021/06/29 02:04:44;;;;;;;20.90;15.55;;;;;;;22.06;100.00;100268.53;3556153;39;20127;-72
2021/06/29 02:10:06;;;;;;;20.50;15.00;;;;;;;22.20;100.00;100262.38;3621208;23;20056;31
2021/06/29 02:12:34;;;;;;;19.98;15.63;;;;;;;21.85;100.00;100256.28;3602332;39;20082;-71
2021/06/29 02:15:00;;;;;;;19.33;15.52;;;;;;;22.39;100.00;100258.34;3602423;39;20581;-76
2021/06/29 02:17:31;;;;;;;19.83;15.10;;;;;;;22.20;100.00;100262.38;3602617;39;20029;-73
2021/06/29 02:19:58;;;;;;;17.15;13.93;;;;;;;22.51;100.00;100256.63;3603060;39;20029;-72
2021/06/29 02:22:24;;;;;;;20.13;14.27;;;;;;;22.81;100.00;100246.63;3603012;39;20040;-72
2021/06/29 02:27:20;;;;;;;18.48;14.73;;;;;;;22.18;100.00;100252.13;3559416;40;20058;-73
2021/06/29 02:29:46;;;;;;;17.70;14.20;;;;;;;22.69;100.00;100259.69;3560983;40;20113;-71
2021/06/29 02:34:41;;;;;;;18.35;14.90;;;;;;;22.08;100.00;100266.66;3559129;40;20067;-74
2021/06/29 02:37:08;;;;;;;18.45;14.45;;;;;;;22.29;100.00;100254.75;3560522;40;20037;-72
2021/06/29 02:39:36;;;;;;;20.65;14.32;;;;;;;22.15;100.00;100257.50;3551249;40;20030;-71
2021/06/29 02:42:06;;;;;;;17.17;13.25;;;;;;;22.52;100.00;100260.91;3559999;40;20039;-71
2021/06/29 02:44:33;;;;;;;16.27;12.85;;;;;;;22.80;100.00;100251.94;3560528;40;20447;-71
2021/06/29 02:47:00;;;;;;;16.67;12.48;;;;;;;22.80;100.00;100251.94;3560495;40;20037;-71
2021/06/29 02:49:26;;;;;;;14.50;12.60;;;;;;;22.72;100.00;100249.09;3551868;40;20042;-71
2021/06/29 02:51:52;;;;;;;17.52;13.27;;;;;;;22.22;100.00;100245.75;3560185;40;20039;-73
2021/06/29 02:54:19;;;;;;;17.77;13.50;;;;;;;22.66;100.00;100247.75;3559794;40;20046;-70
2021/06/29 02:56:45;;;;;;;16.58;12.60;;;;;;;22.96;100.00;100248.09;3560183;40;20046;-74
2021/06/29 02:59:14;;;;;;;16.85;13.38;;;;;;;22.22;100.00;100247.53;3552551;40;20030;-72
2021/06/29 03:01:43;;;;;;;17.42;12.82;;;;;;;22.58;100.00;100244.09;3560620;40;20045;-73
2021/06/29 03:04:11;;;;;;;21.45;14.50;;;;;;;22.65;100.00;100243.53;3551857;40;20038;-73
2021/06/29 03:06:38;;;;;;;27.88;15.55;;;;;;;22.37;100.00;100252.44;3560228;40;20115;-71
2021/06/29 03:09:06;;;;;;;23.52;15.82;;;;;;;21.98;100.00;100249.28;3560309;40;20046;-72
2021/06/29 03:11:33;;;;;;;26.13;15.80;;;;;;;22.18;100.00;100246.13;3559956;40;20035;-73
2021/06/29 03:13:59;;;;;;;22.05;14.82;;;;;;;22.22;100.00;100250.94;3563574;40;20046;-72
2021/06/29 03:16:26;;;;;;;22.80;14.95;;;;;;;22.44;100.00;100258.03;3602410;39;20039;-71
2021/06/29 03:23:58;;;;;;;24.88;16.05;;;;;;;22.01;100.00;100249.06;3626949;23;20380;-71
2021/06/29 03:28:53;;;;;;;26.05;16.40;;;;;;;22.05;100.00;100247.91;3568865;40;20034;-73
2021/06/29 03:31:20;;;;;;;27.60;15.65;;;;;;;21.51;100.00;100249.97;3570324;40;20431;-71
2021/06/29 03:33:46;;;;;;;26.52;16.27;;;;;;;22.11;100.00;100245.72;3604299;23;24257;-73
2021/06/29 03:38:47;;;;;;;23.73;16.08;;;;;;;22.27;100.00;100251.47;3578913;39;20051;-75
2021/06/29 03:41:15;;;;;;;24.05;15.68;;;;;;;22.13;100.00;100243.84;3743667;22;20040;31
2021/06/29 03:46:33;;;;;;;28.80;16.88;;;;;;;21.97;100.00;100240.69;3589102;40;20087;-73
2021/06/29 03:49:00;;;;;;;26.33;16.48;;;;;;;22.03;100.00;100237.66;3588443;39;20041;-73
2021/06/29 03:59:25;;;;;;;22.88;15.43;;;;;;;22.25;100.00;100240.38;3666890;23;20457;-72
2021/06/29 04:02:23;;;;;;;29.55;17.48;;;;;;;22.32;100.00;100244.16;3671661;22;20075;-73
2021/06/29 04:05:17;;;;;;;23.38;16.60;;;;;;;22.34;100.00;100246.66;3759846;22;21744;-68
2021/06/29 04:18:28;;;;;;;24.92;16.75;;;;;;;22.67;100.00;100246.84;3672041;23;20065;-71
2021/06/29 04:21:19;;;;;;;25.25;17.73;;;;;;;22.98;100.00;100250.56;3732729;22;20044;-72
2021/06/29 04:27:00;;;;;;;25.42;17.25;;;;;;;23.51;100.00;100252.53;1429642;23;20878;-72
2021/06/29 04:48:21;;;;;;;22.30;15.23;;;;;;;24.40;100.00;100260.22;1212682;22;20195;-72
2021/06/29 04:51:11;;;;;;;21.05;16.42;;;;;;;24.21;100.00;100257.44;1208835;23;20273;-72
2021/06/29 04:58:48;;;;;;;22.33;16.40;;;;;;;23.88;100.00;100256.53;3749774;23;20038;-73
2021/06/29 05:01:38;;;;;;;21.67;17.95;;;;;;;24.14;100.00;100256.28;1513738;22;20262;-72
2021/06/29 05:21:30;;;;;;;20.08;14.60;;;;;;;24.66;100.00;100258.94;3589575;39;20153;-71
2021/06/29 05:23:56;;;;;;;19.83;15.35;;;;;;;25.37;98.82;100255.56;3581289;40;20025;-72
2021/06/29 05:26:23;;;;;;;17.95;14.60;;;;;;;25.41;98.69;100257.84;3591413;39;20097;-72
2021/06/29 05:28:51;;;;;;;20.30;14.77;;;;;;;25.30;100.00;100265.69;3581620;40;20029;-74
2021/06/29 05:31:18;;;;;;;19.17;14.20;;;;;;;25.36;98.23;100257.34;3590667;40;20029;-72
2021/06/29 05:36:13;;;;;;;18.13;14.52;;;;;;;25.78;96.74;100255.50;3560015;39;20050;-71
2021/06/29 05:38:39;;;;;;;17.00;14.35;;;;;;;25.61;97.71;100261.34;3560758;40;20039;-71
2021/06/29 05:41:10;;;;;;;19.08;14.57;;;;;;;25.36;99.53;100259.97;3561104;40;20046;-74
2021/06/29 05:43:36;;;;;;;19.10;14.98;;;;;;;25.92;95.38;100262.09;3561413;40;20491;-74
2021/06/29 05:46:03;;;;;;;16.58;14.82;;;;;;;25.90;95.98;100264.84;3532503;40;20039;-70
2021/06/29 05:53:52;;;;;;;19.92;14.80;;;;;;;26.23;93.02;100268.91;3837481;22;21069;-72
2021/06/29 06:08:51;;;;;;;20.15;14.45;;;;;;;26.61;91.52;100255.91;3652306;22;20073;-76
2021/06/29 06:11:16;;;;;;;19.38;13.68;;;;;;;26.68;89.91;100254.41;3590951;39;20089;-73
2021/06/29 06:18:43;;;;;;;16.38;12.70;;;;;;;27.63;86.33;100257.78;3599818;40;20057;-72
2021/06/29 06:23:38;;;;;;;18.65;12.10;;;;;;;27.40;85.96;100257.31;3621951;39;20927;-71
2021/06/29 06:26:04;;;;;;;20.33;13.23;;;;;;;26.88;87.76;100245.59;3621230;39;20408;-72
2021/06/29 06:28:29;;;;;;;21.65;13.82;;;;;;;27.40;85.34;100252.91;3622462;39;20023;-73
2021/06/29 06:35:53;;;;;;;19.48;14.30;;;;;;;27.98;81.39;100244.81;3620580;39;20048;-72
2021/06/29 06:38:18;;;;;;;18.02;13.27;;;;;;;27.67;82.18;100254.75;3620352;39;20036;-74
2021/06/29 06:40:44;;;;;;;14.07;12.45;;;;;;;27.98;79.88;100252.66;3622089;39;20042;-71
2021/06/29 06:43:10;;;;;;;16.75;13.02;;;;;;;27.83;80.48;100247.06;3621880;39;20031;-72
2021/06/29 06:45:35;;;;;;;16.60;13.52;;;;;;;27.86;79.00;100245.97;3622167;39;20036;-72
2021/06/29 06:48:01;;;;;;;18.15;12.77;;;;;;;28.01;76.94;100252.34;3612918;39;20059;-69
2021/06/29 06:50:27;;;;;;;14.90;12.95;;;;;;;28.52;76.16;100255.16;3621344;39;20039;-69
2021/06/29 06:52:52;;;;;;;18.00;13.15;;;;;;;28.35;76.21;100255.97;3600441;40;20017;-69
2021/06/29 06:55:19;;;;;;;16.15;13.45;;;;;;;28.85;76.08;100253.66;3600543;40;20447;-71
2021/06/29 06:57:45;;;;;;;20.50;13.10;;;;;;;27.96;76.50;100249.38;3601356;40;20032;-70
2021/06/29 07:00:12;;;;;;;15.68;11.88;;;;;;;28.53;74.43;100256.81;3601278;39;20037;-69
2021/06/29 07:02:39;;;;;;;14.82;12.38;;;;;;;28.53;74.70;100262.03;3580481;40;20062;-69
2021/06/29 07:05:06;;;;;;;14.98;12.60;;;;;;;27.89;76.68;100258.75;3600346;40;20045;-72
2021/06/29 07:07:31;;;;;;;14.38;12.25;;;;;;;28.81;73.97;100258.38;3600676;39;20016;-73
2021/06/29 07:09:57;;;;;;;15.05;10.82;;;;;;;29.24;71.56;100259.34;3601724;39;20039;-71
2021/06/29 07:12:22;;;;;;;12.80;11.05;;;;;;;29.67;70.90;100256.59;3602281;39;20110;-72
2021/06/29 07:14:48;;;;;;;14.23;11.68;;;;;;;29.23;71.54;100265.56;3600943;40;20052;-72
2021/06/29 07:17:13;;;;;;;17.80;11.75;;;;;;;29.26;70.07;100262.63;3592976;39;20028;-72
2021/06/29 07:27:14;;;;;;;19.48;12.10;;;;;;;29.21;69.84;100254.41;3599025;23;20044;-71
2021/06/29 07:29:50;;;;;;;14.32;12.27;;;;;;;29.82;68.39;100248.00;3616225;23;20514;-73
2021/06/29 07:37:21;;;;;;;14.45;13.07;;;;;;;29.81;67.50;100250.78;3618313;23;21073;-72
2021/06/29 07:39:46;;;;;;;14.57;11.95;;;;;;;28.53;70.88;100250.72;3579025;40;20025;-72
2021/06/29 07:42:11;;;;;;;16.92;13.23;;;;;;;29.41;69.13;100253.22;3579820;40;20090;-72
2021/06/29 07:44:37;;;;;;;17.90;13.52;;;;;;;30.03;68.47;100255.41;3580393;40;20090;-73
2021/06/29 07:47:02;;;;;;;15.25;12.70;;;;;;;29.10;70.59;100258.91;3579062;40;20034;-71
2021/06/29 07:52:29;;;;;;;17.73;13.35;;;;;;;29.98;67.35;100254.25;3615658;23;20493;-73
2021/06/29 07:54:54;;;;;;;20.27;12.65;;;;;;;30.84;64.68;100248.50;3620282;39;20036;-73
2021/06/29 07:57:20;;;;;;;16.13;13.07;;;;;;;29.90;67.64;100255.91;3621884;39;20064;-71
2021/06/29 07:59:45;;;;;;;16.08;13.38;;;;;;;29.97;69.09;100252.63;3621581;39;20039;-71
2021/06/29 08:02:11;;;;;;;21.60;13.48;;;;;;;31.25;65.24;100254.50;3620996;39;20035;-72
2021/06/29 08:04:37;;;;;;;14.75;12.30;;;;;;;30.22;66.22;100249.91;3621735;39;20030;-73
2021/06/29 08:07:03;;;;;;;16.70;12.20;;;;;;;30.56;65.26;100248.00;3610429;39;20028;-72
2021/06/29 08:09:28;;;;;;;15.75;12.45;;;;;;;31.43;62.93;100247.25;3620456;39;20039;-71
2021/06/29 08:11:54;;;;;;;18.95;12.88;;;;;;;30.73;64.42;100254.88;3610015;39;20049;-72
2021/06/29 08:14:20;;;;;;;15.38;12.77;;;;;;;31.01;64.66;100257.16;3619920;39;20036;-70
2021/06/29 08:16:46;;;;;;;17.17;12.73;;;;;;;30.94;65.21;100250.94;3621305;39;20031;-75
2021/06/29 08:19:12;;;;;;;16.85;12.85;;;;;;;30.28;65.00;100253.69;3611023;39;20395;-73
2021/06/29 08:21:38;;;;;;;17.02;12.73;;;;;;;30.15;66.01;100248.88;3611014;39;20028;-73
2021/06/29 08:24:04;;;;;;;15.30;12.60;;;;;;;31.01;64.77;100244.03;3620610;39;20038;-72
2021/06/29 08:26:30;;;;;;;14.25;12.80;;;;;;;30.87;65.66;100242.91;3610181;39;20044;-72
2021/06/29 08:28:55;;;;;;;15.30;13.02;;;;;;;31.31;64.27;100243.31;3609792;39;20036;-71
2021/06/29 08:31:21;;;;;;;20.20;13.98;;;;;;;31.41;63.57;100228.19;3619789;39;20040;-74
2021/06/29 08:33:48;;;;;;;19.92;13.77;;;;;;;31.27;65.13;100237.56;3620701;39;20275;-70
2021/06/29 08:36:16;;;;;;;16.77;13.77;;;;;;;31.21;64.81;100237.41;3621389;39;20035;-72
2021/06/29 08:38:42;;;;;;;15.48;13.38;;;;;;;32.00;62.92;100234.66;3619862;39;20032;-74
2021/06/29 08:41:07;;;;;;;19.10;12.40;;;;;;;31.78;61.28;100241.47;3620531;39;20032;-72
2021/06/29 08:43:33;;;;;;;14.88;13.15;;;;;;;31.40;64.27;100226.53;3620545;39;20039;-71
2021/06/29 08:46:01;;;;;;;15.55;12.75;;;;;;;31.44;64.21;100230.47;3620151;39;20412;-71
2021/06/29 08:48:27;;;;;;;16.95;13.30;;;;;;;31.11;64.75;100228.91;3619848;39;20037;-71
2021/06/29 08:50:52;;;;;;;18.40;13.13;;;;;;;31.88;63.59;100221.03;3620477;39;20028;-77
2021/06/29 08:59:31;;;;;;;13.43;11.98;;;;;;;32.47;59.82;100216.09;3598999;40;20043;-72
2021/06/29 09:02:00;;;;;;;14.80;12.77;;;;;;;32.09;60.95;100202.03;3599567;39;20041;-70
2021/06/29 09:04:50;;;;;;;15.10;11.82;;;;;;;31.45;61.41;100205.81;3598908;39;20044;-72
2021/06/29 09:07:30;;;;;;;15.90;12.43;;;;;;;32.17;60.31;100208.03;3589399;39;20061;-72
2021/06/29 09:09:59;;;;;;;15.52;12.38;;;;;;;31.84;62.01;100200.50;3598094;40;20037;-75
2021/06/29 09:12:47;;;;;;;17.77;12.13;;;;;;;32.24;60.47;100200.25;3598556;39;20037;-73
2021/06/29 09:15:22;;;;;;;17.30;11.07;;;;;;;32.58;58.85;100199.84;3599011;39;20049;-71
2021/06/29 09:17:48;;;;;;;14.07;10.82;;;;;;;31.30;59.98;100202.22;3599002;40;20580;-70
2021/06/29 09:20:13;;;;;;;12.27;10.75;;;;;;;32.53;56.14;100202.19;3599209;39;20065;-73
2021/06/29 09:22:39;;;;;;;12.90;11.18;;;;;;;33.30;57.41;100203.56;3599031;39;20102;-71
2021/06/29 09:25:22;;;;;;;15.15;10.82;;;;;;;33.01;55.79;100197.28;3598679;39;20037;-73
2021/06/29 09:27:49;;;;;;;12.60;11.18;;;;;;;32.31;57.02;100199.38;3597952;39;20399;-73
2021/06/29 09:30:30;;;;;;;13.90;11.60;;;;;;;32.60;56.46;100192.59;3597062;40;20319;-72
2021/06/29 09:33:31;;;;;;;12.30;10.85;;;;;;;32.68;55.76;100192.50;3589023;40;20049;-73
2021/06/29 09:35:58;;;;;;;15.52;10.90;;;;;;;32.33;56.39;100186.84;3590066;39;20029;-73
2021/06/29 09:38:33;;;;;;;15.27;11.52;;;;;;;33.32;55.40;100177.81;3599185;39;20021;-73
2021/06/29 09:41:03;;;;;;;12.93;11.52;;;;;;;32.90;54.21;100181.09;3577889;39;20094;-72
2021/06/29 09:43:32;;;;;;;13.63;11.63;;;;;;;32.06;56.47;100178.69;3579517;39;20441;-70
2021/06/29 09:46:01;;;;;;;13.68;10.90;;;;;;;33.45;53.80;100175.34;3580255;39;20267;-71
2021/06/29 09:48:52;;;;;;;12.73;11.43;;;;;;;33.41;55.18;100174.91;3580320;39;20026;-72
2021/06/29 09:53:51;;;;;;;15.15;12.18;;;;;;;32.71;55.94;100161.34;3569176;39;20071;-72
2021/06/29 09:56:22;;;;;;;15.20;11.85;;;;;;;32.97;54.15;100160.94;3570137;40;20034;-72
2021/06/29 09:58:53;;;;;;;14.75;11.55;;;;;;;33.92;52.41;100165.13;3570326;40;20117;-70
2021/06/29 10:01:20;;;;;;;;;;;;;;;32.55;53.31;100171.22;3605908;40;20066;-73
2021/06/29 10:03:51;;;;;;;13.48;10.70;;;;;;;32.63;52.86;100164.06;3605500;40;19944;-71
2021/06/29 10:06:18;;;;;;;15.23;11.18;;;;;;;33.95;51.59;100155.00;3606867;40;20028;-71
2021/06/29 10:08:45;;;;;;;19.38;12.02;;;;;;;34.63;52.53;100161.50;3570051;40;20034;-73
2021/06/29 10:11:28;;;;;;;14.50;11.00;;;;;;;34.28;51.34;100150.03;3607059;40;20040;-73
2021/06/29 10:13:56;;;;;;;13.65;10.02;;;;;;;34.27;51.36;100155.53;3569763;40;20332;-72
2021/06/29 10:16:24;;;;;;;13.48;11.18;;;;;;;33.63;50.35;100154.66;3569324;40;20034;-72
2021/06/29 10:21:24;;;;;;;11.63;10.43;;;;;;;33.14;49.61;100150.00;3569406;40;20034;-73
2021/06/29 10:23:55;;;;;;;14.77;11.52;;;;;;;31.98;54.48;100147.97;3604974;40;20419;-72
2021/06/29 10:26:23;;;;;;;12.60;11.40;;;;;;;32.68;53.26;100145.09;3569179;40;20079;-73
2021/06/29 10:28:50;;;;;;;13.70;11.73;;;;;;;33.48;51.68;100138.88;3603652;40;20424;-74
2021/06/29 10:31:21;;;;;;;12.77;11.02;;;;;;;33.92;49.49;100136.91;3604240;40;20034;-73
2021/06/29 10:33:48;;;;;;;12.15;10.23;;;;;;;34.59;48.31;100124.06;3569342;40;20397;-73
2021/06/29 10:36:15;;;;;;;12.75;10.75;;;;;;;33.95;49.38;100128.59;3606047;40;20032;-72
2021/06/29 10:38:41;;;;;;;12.85;11.48;;;;;;;32.76;52.42;100131.81;3570595;39;20041;-72
2021/06/29 10:43:37;;;;;;;15.73;10.85;;;;;;;33.71;51.15;100114.97;3631680;39;20036;-73
2021/06/29 10:46:03;;;;;;;13.30;10.88;;;;;;;34.13;48.88;100120.25;3632337;39;20456;-72
2021/06/29 10:48:29;;;;;;;13.25;10.60;;;;;;;33.90;48.54;100109.88;3632872;39;20037;-72
2021/06/29 10:50:58;;;;;;;15.10;11.00;;;;;;;33.90;49.02;100116.97;3632627;39;20051;-75
2021/06/29 10:53:50;;;;;;;11.48;10.15;;;;;;;33.77;47.90;100104.50;3622166;39;20035;-72
2021/06/29 10:56:17;;;;;;;15.00;10.73;;;;;;;33.55;48.30;100102.03;3599375;40;20036;-74
2021/06/29 10:58:47;;;;;;;11.73;9.27;;;;;;;32.76;49.40;100101.03;3608882;40;20028;-72
2021/06/29 11:01:34;;;;;;;12.37;10.20;;;;;;;33.87;48.06;100091.75;3600006;40;20086;-72
2021/06/29 11:04:02;;;;;;;11.27;10.05;;;;;;;34.67;47.27;100091.38;3600136;40;20056;-75
2021/06/29 11:06:42;;;;;;;15.02;10.38;;;;;;;34.44;45.99;100080.25;3607971;40;20039;-72
2021/06/29 11:09:10;;;;;;;12.98;10.32;;;;;;;34.80;45.84;100089.63;3608714;40;20299;-72
2021/06/29 11:11:35;;;;;;;12.10;10.20;;;;;;;34.45;46.29;100082.69;3609252;39;20036;-73
2021/06/29 11:14:01;;;;;;;12.95;10.32;;;;;;;33.95;47.59;100075.78;3609324;40;20032;-75
2021/06/29 11:16:53;;;;;;;13.27;9.88;;;;;;;34.56;46.21;100081.38;3609291;40;20051;-72
2021/06/29 11:19:20;;;;;;;10.65;9.48;;;;;;;34.48;45.51;100081.53;3609765;40;20040;-73
2021/06/29 11:21:46;;;;;;;13.70;10.30;;;;;;;33.35;48.15;100080.69;3599385;39;20028;-72
2021/06/29 11:24:42;;;;;;;13.68;10.23;;;;;;;33.33;46.42;100066.03;3607038;40;20438;-73
2021/06/29 11:27:08;;;;;;;10.52;8.95;;;;;;;34.26;45.29;100064.88;3607293;39;20034;-72
2021/06/29 11:29:44;;;;;;;11.65;9.80;;;;;;;34.57;44.81;100062.66;3629400;39;20035;-72
2021/06/29 11:32:25;;;;;;;10.73;8.75;;;;;;;35.75;40.79;100073.66;3629250;39;20051;-75
2021/06/29 11:34:50;;;;;;;10.60;8.60;;;;;;;34.98;41.08;100064.50;3628450;39;20039;-73
2021/06/29 11:37:16;;;;;;;11.77;9.18;;;;;;;34.46;43.26;100062.38;3628584;39;20123;-74
2021/06/29 11:39:41;;;;;;;13.05;9.75;;;;;;;35.57;41.77;100062.84;3627861;39;20039;-72
2021/06/29 11:45:46;;;;;;;13.63;9.70;;;;;;;35.69;40.04;100063.88;3575636;39;20296;-72
2021/06/29 11:48:42;;;;;;;13.60;9.90;;;;;;;34.81;43.76;100058.72;3581088;39;20041;-74
2021/06/29 11:51:07;;;;;;;11.43;9.55;;;;;;;34.59;43.67;100051.91;3597233;40;20116;-74
2021/06/29 11:53:38;;;;;;;11.68;9.63;;;;;;;35.32;42.31;100053.84;3597552;40;20044;-72
2021/06/29 11:56:08;;;;;;;12.35;9.40;;;;;;;34.11;44.13;100047.53;3597378;40;20047;-74
2021/06/29 11:58:34;;;;;;;12.95;9.70;;;;;;;35.14;43.24;100056.22;3588643;40;20525;-75
2021/06/29 12:01:06;;;;;;;11.32;9.60;;;;;;;34.80;42.55;100059.75;3597501;40;20033;-74
2021/06/29 12:03:31;;;;;;;11.25;8.60;;;;;;;34.54;41.97;100052.50;3562387;40;20028;-72
2021/06/29 12:05:57;;;;;;;9.60;8.52;;;;;;;35.08;39.79;100049.09;3589260;40;20090;-72
2021/06/29 12:08:25;;;;;;;10.80;8.65;;;;;;;34.45;39.77;100045.69;3597494;40;20031;-73
2021/06/29 12:10:53;;;;;;;12.13;8.63;;;;;;;34.48;41.05;100048.00;3597797;40;20048;-73
2021/06/29 12:13:26;;;;;;;12.05;9.18;;;;;;;35.32;42.73;100044.06;3599346;40;20045;-72
2021/06/29 12:15:58;;;;;;;9.93;8.93;;;;;;;34.47;41.70;100043.72;3587280;40;20117;-72
2021/06/29 12:18:28;;;;;;;9.07;8.18;;;;;;;34.28;40.76;100047.03;3577676;40;20134;-72
2021/06/29 12:21:00;;;;;;;11.20;8.15;;;;;;;35.08;39.18;100039.34;3587895;40;20039;-72
2021/06/29 12:23:30;;;;;;;10.40;8.65;;;;;;;35.68;39.49;100035.78;3580235;39;20446;-72
2021/06/29 12:25:59;;;;;;;10.27;8.55;;;;;;;34.51;39.03;100033.56;3579914;40;20414;-74
2021/06/29 12:28:28;;;;;;;9.23;7.63;;;;;;;35.23;36.52;100025.94;3589773;39;20345;-73
2021/06/29 12:31:02;;;;;;;11.05;8.43;;;;;;;35.23;37.99;100034.69;3581111;39;20452;-72
2021/06/29 12:33:29;;;;;;;9.57;7.63;;;;;;;34.87;37.91;100021.72;3589580;40;20033;-73
2021/06/29 12:35:59;;;;;;;9.30;8.30;;;;;;;35.33;39.36;100027.19;3580314;40;20040;-72
2021/06/29 12:38:27;;;;;;;9.73;8.57;;;;;;;35.18;38.66;100021.22;3589728;39;20025;-71
2021/06/29 12:41:05;;;;;;;9.27;7.43;;;;;;;34.47;39.46;100016.44;3588502;40;20037;-75
2021/06/29 12:43:40;;;;;;;11.57;7.65;;;;;;;34.40;39.12;100018.22;3588156;40;20021;-72
2021/06/29 12:51:05;;;;;;;15.45;8.00;;;;;;;34.94;37.20;100008.53;3578813;40;20545;-73
2021/06/29 12:53:31;;;;;;;10.87;7.67;;;;;;;35.30;36.54;100016.19;3589909;39;20037;-73
2021/06/29 12:56:16;;;;;;;8.73;7.10;;;;;;;35.14;35.78;100012.06;3590179;39;20351;-73
2021/06/29 13:01:12;;;;;;;8.88;6.70;;;;;;;35.37;35.45;100020.47;3577177;40;20105;-72
2021/06/29 13:03:40;;;;;;;7.90;6.65;;;;;;;34.79;36.80;100005.22;3614953;39;20029;-72
2021/06/29 13:08:34;;;;;;;8.98;6.75;;;;;;;35.89;37.59;100005.63;3556999;39;20071;-71
2021/06/29 13:13:35;;;;;;;7.40;6.68;;;;;;;35.84;35.54;100002.78;3567005;40;20766;-74
2021/06/29 13:16:17;;;;;;;7.45;6.68;;;;;;;35.08;36.75;99991.72;3574702;40;20054;-72
2021/06/29 13:18:42;;;;;;;12.48;6.90;;;;;;;35.95;36.97;99991.59;3612212;40;20048;-72
2021/06/29 13:21:30;;;;;;;9.02;6.68;;;;;;;34.52;35.84;99985.00;3611541;40;20084;-73
2021/06/29 13:24:07;;;;;;;10.38;6.63;;;;;;;34.56;34.56;99981.78;3560136;40;20023;-75
2021/06/29 13:26:50;;;;;;;17.77;6.15;;;;;;;34.12;36.27;99975.19;3560716;40;20030;-73
2021/06/29 13:29:24;;;;;;;7.47;6.72;;;;;;;35.44;35.46;99978.13;3569907;40;20033;-74
2021/06/29 13:31:50;;;;;;;7.95;7.15;;;;;;;34.67;37.19;99972.44;3568928;40;20404;-76
2021/06/29 13:34:21;;;;;;;13.43;6.75;;;;;;;34.46;36.89;99970.72;3569471;40;20123;-72
2021/06/29 13:36:49;;;;;;;8.88;7.60;;;;;;;34.74;38.15;99968.00;3569635;40;20052;-73
2021/06/29 13:39:31;;;;;;;9.27;7.65;;;;;;;34.58;38.75;99963.06;3569327;40;20408;-74
2021/06/29 13:41:58;;;;;;;7.63;6.93;;;;;;;34.91;36.99;99964.81;3570359;40;20033;-71
2021/06/29 13:44:25;;;;;;;9.82;7.82;;;;;;;34.58;38.55;99958.59;3570401;39;20030;-72
2021/06/29 13:47:07;;;;;;;8.45;7.47;;;;;;;34.18;39.15;99954.13;3561516;40;20042;-73
2021/06/29 13:49:34;;;;;;;8.70;7.82;;;;;;;35.30;36.87;99947.41;3570586;40;20034;-73
2021/06/29 13:52:12;;;;;;;9.73;6.97;;;;;;;35.08;37.00;99953.88;3570789;40;20040;-74
2021/06/29 13:54:39;;;;;;;8.15;6.70;;;;;;;34.88;36.67;99948.53;3570051;40;20292;-75
2021/06/29 13:57:08;;;;;;;8.57;7.10;;;;;;;34.74;38.70;99952.16;3571259;39;20087;-73
2021/06/29 13:59:39;;;;;;;7.90;6.60;;;;;;;34.19;38.49;99953.09;3571043;40;20336;-73
2021/06/29 14:02:07;;;;;;;;;;;;;;;34.63;39.33;99956.19;3559906;39;20482;-71
2021/06/29 14:04:51;;;;;;;10.27;6.80;;;;;;;34.18;38.72;99948.00;3570674;40;19940;-73
2021/06/29 14:07:17;;;;;;;8.45;7.43;;;;;;;34.57;38.41;99945.56;3569977;39;20577;-72
2021/06/29 14:09:42;;;;;;;9.10;7.13;;;;;;;34.04;38.78;99940.03;3570183;39;20045;-72
2021/06/29 14:17:48;;;;;;;8.23;6.35;;;;;;;34.23;37.97;99929.78;3611216;39;20052;-74
2021/06/29 14:20:13;;;;;;;7.50;6.57;;;;;;;34.29;37.40;99926.34;3620751;39;20095;-72
2021/06/29 14:22:39;;;;;;;6.93;6.25;;;;;;;34.27;35.81;99929.16;3622849;39;20544;-71
2021/06/29 14:25:05;;;;;;;10.52;6.47;;;;;;;34.61;36.07;99923.03;3622975;39;20429;-72
2021/06/29 14:37:28;;;;;;;9.02;6.72;;;;;;;34.21;35.75;99905.38;3626840;39;20060;-73
2021/06/29 14:47:28;;;;;;;6.75;6.15;;;;;;;34.29;36.29;99913.16;3628513;22;20106;-73
2021/06/29 14:50:03;;;;;;;8.80;5.93;;;;;;;34.07;35.31;99913.22;3622029;39;20039;-73
2021/06/29 14:52:30;;;;;;;7.57;5.88;;;;;;;34.42;34.41;99916.66;3628523;39;20032;-71
2021/06/29 14:57:25;;;;;;;7.25;6.47;;;;;;;34.40;35.44;99912.56;3564261;40;20417;-71
2021/06/29 14:59:58;;;;;;;9.20;5.97;;;;;;;34.63;33.70;99911.25;3568805;39;20038;-73